Time;durP1;ratioP1;P1;durP2;ratioP2;P2;SDS_P1;SDS_P2;PMS_P1;PMS_P2;Temp;Humidity;BMP_temperature;BMP_pressure;BME280_temperature;BME280_humidity;BME280_pressure;Samples;Min_cycle;Max_cycle;Signal;HPM_P1;HPM_P2
2021/06/24 00:01:18;;;;;;;1.63;1.40;;;17.40;99.90;;;;;;5063201;28;21224;-87
2021/06/24 00:03:45;;;;;;;1.80;1.63;;;17.40;99.90;;;;;;5067186;28;20624;-87
2021/06/24 00:06:12;;;;;;;4.70;2.13;;;17.30;99.90;;;;;;5069589;28;20624;-87
2021/06/24 00:08:39;;;;;;;2.10;1.83;;;17.50;99.90;;;;;;5054854;28;20633;-88
2021/06/24 00:11:08;;;;;;;2.23;1.60;;;17.40;99.90;;;;;;5069985;28;20663;-87
2021/06/24 00:13:36;;;;;;;5.53;2.13;;;17.80;99.90;;;;;;5066520;28;20618;-87
2021/06/24 00:16:04;;;;;;;2.63;1.93;;;17.90;99.90;;;;;;5057246;28;21005;-87
2021/06/24 00:18:31;;;;;;;1.87;1.60;;;17.70;99.90;;;;;;5061795;28;20625;-88
2021/06/24 00:20:58;;;;;;;2.57;1.80;;;17.80;99.90;;;;;;5064510;28;20686;-87
2021/06/24 00:23:25;;;;;;;3.00;1.80;;;17.70;99.90;;;;;;5062484;28;20969;-87
2021/06/24 00:25:52;;;;;;;4.40;1.57;;;17.70;99.90;;;;;;5067245;28;20632;-87
2021/06/24 00:28:22;;;;;;;3.10;1.20;;;17.80;99.90;;;;;;5057927;28;20642;-87
2021/06/24 00:30:52;;;;;;;2.57;1.70;;;17.60;99.90;;;;;;5073260;28;20679;-88
2021/06/24 00:33:20;;;;;;;2.13;1.70;;;17.70;99.90;;;;;;5064546;28;20628;-89
2021/06/24 00:35:47;;;;;;;2.13;1.67;;;17.90;99.90;;;;;;5070437;28;21241;-89
2021/06/24 00:38:14;;;;;;;2.67;1.87;;;17.90;99.90;;;;;;5067900;28;20609;-87
2021/06/24 00:40:41;;;;;;;2.33;2.10;;;18.10;99.90;;;;;;5067150;28;21037;-89
2021/06/24 00:43:10;;;;;;;2.07;1.70;;;18.10;99.90;;;;;;5068041;28;21262;-89
2021/06/24 00:45:38;;;;;;;2.10;1.20;;;18.10;99.90;;;;;;5064218;28;20629;-89
2021/06/24 00:48:08;;;;;;;1.17;1.07;;;18.20;99.90;;;;;;5063637;28;20625;-89
2021/06/24 00:50:36;;;;;;;5.80;1.80;;;18.20;99.90;;;;;;5067954;28;20644;-87
2021/06/24 00:53:03;;;;;;;4.10;1.60;;;18.20;99.90;;;;;;5069179;28;20611;-89
2021/06/24 00:55:44;;;;;;;2.60;1.90;;;18.40;99.90;;;;;;5066762;28;20636;-88
2021/06/24 00:58:13;;;;;;;2.00;1.80;;;18.20;99.90;;;;;;5067895;28;21544;-88
2021/06/24 01:00:41;;;;;;;5.37;2.33;;;18.10;99.90;;;;;;5073571;28;20710;-88
2021/06/24 01:03:09;;;;;;;1.77;1.60;;;17.90;99.90;;;;;;5066888;28;20997;-88
2021/06/24 01:05:37;;;;;;;1.83;1.73;;;17.80;99.90;;;;;;5074648;28;20640;-89
2021/06/24 01:08:05;;;;;;;2.50;1.97;;;17.60;99.90;;;;;;5067351;28;20632;-88
2021/06/24 01:10:32;;;;;;;2.10;1.40;;;17.60;99.90;;;;;;5071408;28;21043;-90
2021/06/24 01:13:00;;;;;;;2.40;1.30;;;17.60;99.90;;;;;;5071622;28;21153;-87
2021/06/24 01:15:27;;;;;;;1.60;1.50;;;17.50;99.90;;;;;;5068318;28;20943;-87
2021/06/24 01:17:54;;;;;;;4.73;2.60;;;17.50;99.90;;;;;;5061513;28;20608;-89
2021/06/24 01:20:25;;;;;;;2.47;2.07;;;17.40;99.90;;;;;;5067628;28;21023;-87
2021/06/24 01:22:52;;;;;;;2.23;1.10;;;17.30;99.90;;;;;;5072250;28;20634;-87
2021/06/24 01:25:21;;;;;;;2.70;1.70;;;17.40;99.90;;;;;;5069582;28;20659;-89
2021/06/24 01:27:49;;;;;;;2.60;1.40;;;17.60;99.90;;;;;;5062132;28;20635;-88
2021/06/24 01:30:16;;;;;;;2.67;2.47;;;17.60;99.90;;;;;;5065617;28;20647;-89
2021/06/24 01:32:43;;;;;;;2.03;1.83;;;17.60;99.90;;;;;;5063239;28;20635;-86
2021/06/24 01:35:11;;;;;;;2.07;1.77;;;17.50;99.90;;;;;;5061576;28;20620;-87
2021/06/24 01:37:38;;;;;;;3.70;2.30;;;17.30;99.90;;;;;;5064893;28;20620;-88
2021/06/24 01:40:06;;;;;;;3.77;1.43;;;17.10;99.90;;;;;;5059651;28;20683;-87
2021/06/24 01:42:34;;;;;;;2.60;1.87;;;17.10;99.90;;;;;;5062855;28;20625;-89
2021/06/24 01:45:02;;;;;;;2.00;1.67;;;17.00;99.90;;;;;;5067049;28;20639;-88
2021/06/24 01:47:28;;;;;;;3.33;2.70;;;17.00;99.90;;;;;;5066372;28;21196;-88
2021/06/24 01:49:55;;;;;;;3.07;2.77;;;17.00;99.90;;;;;;5065017;28;20650;-88
2021/06/24 01:52:22;;;;;;;2.40;2.20;;;16.90;99.90;;;;;;5064372;28;20632;-88
2021/06/24 01:54:49;;;;;;;2.40;2.13;;;17.00;99.90;;;;;;5071850;28;20605;-88
2021/06/24 01:57:17;;;;;;;3.17;2.13;;;17.00;99.90;;;;;;5056932;28;20628;-88
2021/06/24 01:59:46;;;;;;;3.00;2.07;;;17.20;99.90;;;;;;5074495;28;20698;-86
2021/06/24 02:02:13;;;;;;;3.87;2.53;;;17.30;99.90;;;;;;5061445;28;20621;-86
2021/06/24 02:04:40;;;;;;;3.73;2.83;;;17.20;99.90;;;;;;5071532;28;21400;-87
2021/06/24 02:07:07;;;;;;;3.93;2.90;;;17.10;99.90;;;;;;5060052;28;21183;-86
2021/06/24 02:09:33;;;;;;;3.83;2.67;;;17.10;99.90;;;;;;5063029;28;21306;-85
2021/06/24 02:12:00;;;;;;;3.30;2.87;;;17.00;99.90;;;;;;5070926;28;20629;-86
2021/06/24 02:14:27;;;;;;;4.37;2.50;;;17.00;99.90;;;;;;5070340;28;20632;-86
2021/06/24 02:16:55;;;;;;;3.70;3.50;;;17.10;99.90;;;;;;5067726;28;20628;-86
2021/06/24 02:19:22;;;;;;;3.00;2.80;;;16.90;99.90;;;;;;5068642;28;21319;-86
2021/06/24 02:21:49;;;;;;;2.80;2.60;;;16.80;99.90;;;;;;5062660;28;20885;-87
2021/06/24 02:24:15;;;;;;;3.10;2.80;;;17.00;99.90;;;;;;5065699;28;20641;-86
2021/06/24 02:26:42;;;;;;;3.60;3.40;;;17.20;99.90;;;;;;5058719;28;20639;-87
2021/06/24 02:29:09;;;;;;;2.50;2.40;;;17.20;99.90;;;;;;5064566;28;20621;-87
2021/06/24 02:31:36;;;;;;;3.57;3.37;;;17.40;99.90;;;;;;5070955;28;20641;-86
2021/06/24 02:34:06;;;;;;;3.20;2.87;;;17.50;99.90;;;;;;5064756;28;21346;-87
2021/06/24 02:36:33;;;;;;;4.80;4.50;;;17.30;99.90;;;;;;5065221;28;20625;-86
2021/06/24 02:39:00;;;;;;;3.40;2.80;;;17.20;99.90;;;;;;5069289;28;20638;-86
2021/06/24 02:41:27;;;;;;;2.40;2.20;;;17.10;99.90;;;;;;5054841;28;20669;-86
2021/06/24 02:43:53;;;;;;;3.00;2.40;;;17.00;99.90;;;;;;5065905;28;20612;-87
2021/06/24 02:46:20;;;;;;;2.10;1.90;;;17.00;99.90;;;;;;5061641;28;20634;-86
2021/06/24 02:48:47;;;;;;;3.63;2.37;;;17.00;99.90;;;;;;5063888;28;20624;-86
2021/06/24 02:51:15;;;;;;;5.10;2.80;;;17.00;99.90;;;;;;5065509;28;20656;-86
2021/06/24 02:53:42;;;;;;;2.83;2.50;;;17.00;99.90;;;;;;5073317;28;20628;-86
2021/06/24 02:56:09;;;;;;;3.17;2.63;;;16.90;99.90;;;;;;5064852;28;20621;-86
2021/06/24 02:58:35;;;;;;;3.00;2.70;;;16.90;99.90;;;;;;5067573;28;20639;-86
2021/06/24 03:01:03;;;;;;;3.97;2.30;;;16.90;99.90;;;;;;5063222;28;20682;-86
2021/06/24 03:03:30;;;;;;;2.90;2.53;;;16.80;99.90;;;;;;5068009;28;20626;-86
2021/06/24 03:05:56;;;;;;;3.30;3.00;;;16.80;99.90;;;;;;5065166;28;20628;-85
2021/06/24 03:08:24;;;;;;;3.30;2.90;;;16.80;99.90;;;;;;5060305;28;20621;-86
2021/06/24 03:10:51;;;;;;;6.97;2.93;;;16.70;99.90;;;;;;5065630;28;21218;-86
2021/06/24 03:13:18;;;;;;;3.13;2.93;;;16.90;99.90;;;;;;5065516;28;20645;-85
2021/06/24 03:15:47;;;;;;;3.07;2.77;;;17.00;99.90;;;;;;5058856;28;20627;-86
2021/06/24 03:18:14;;;;;;;3.00;2.70;;;16.90;99.90;;;;;;5058934;28;20633;-87
2021/06/24 03:20:41;;;;;;;3.83;2.80;;;16.80;99.90;;;;;;5061621;28;21289;-86
2021/06/24 03:23:07;;;;;;;2.63;2.43;;;16.80;99.90;;;;;;5065574;28;20622;-86
2021/06/24 03:25:36;;;;;;;3.10;2.90;;;16.70;99.90;;;;;;5064131;28;20649;-88
2021/06/24 03:28:02;;;;;;;3.60;3.03;;;16.60;99.90;;;;;;5059196;28;20631;-85
2021/06/24 03:30:29;;;;;;;3.17;2.97;;;16.60;99.90;;;;;;5058490;28;20650;-85
2021/06/24 03:32:56;;;;;;;4.60;3.77;;;16.50;99.90;;;;;;5064216;28;20639;-87
2021/06/24 03:35:23;;;;;;;4.73;3.70;;;16.60;99.90;;;;;;5062677;28;21176;-86
2021/06/24 03:37:49;;;;;;;4.00;3.60;;;16.60;99.90;;;;;;5065660;28;20643;-86
2021/06/24 03:40:18;;;;;;;3.23;2.93;;;16.60;99.90;;;;;;5057563;28;20677;-86
2021/06/24 03:42:47;;;;;;;2.57;2.37;;;16.60;99.90;;;;;;5062600;28;21020;-87
2021/06/24 03:45:16;;;;;;;3.20;2.30;;;16.70;99.90;;;;;;5066479;28;20679;-86
2021/06/24 03:47:43;;;;;;;8.27;4.37;;;16.90;99.90;;;;;;5064709;28;21221;-88
2021/06/24 03:50:11;;;;;;;3.23;3.03;;;16.90;99.90;;;;;;5066801;28;20641;-87
2021/06/24 03:52:38;;;;;;;4.77;3.50;;;17.00;99.90;;;;;;5070996;28;20633;-86
2021/06/24 03:55:06;;;;;;;4.10;3.80;;;17.00;99.90;;;;;;5060791;28;20659;-86
2021/06/24 03:57:33;;;;;;;3.43;3.23;;;16.70;99.90;;;;;;5063602;28;20630;-87
2021/06/24 04:00:01;;;;;;;4.43;4.07;;;16.50;99.90;;;;;;5064350;28;20702;-85
2021/06/24 04:02:28;;;;;;;4.10;3.80;;;16.40;99.90;;;;;;5059401;28;20992;-85
2021/06/24 04:04:55;;;;;;;7.83;4.37;;;16.30;99.90;;;;;;5067735;28;20685;-86
2021/06/24 04:07:22;;;;;;;4.97;4.47;;;16.30;99.90;;;;;;5056683;28;20622;-85
2021/06/24 04:09:49;;;;;;;4.50;4.10;;;16.30;99.90;;;;;;5063635;28;20667;-85
2021/06/24 04:12:16;;;;;;;6.40;3.97;;;16.30;99.90;;;;;;5061914;28;20991;-85
2021/06/24 04:14:43;;;;;;;6.20;4.50;;;16.30;99.90;;;;;;5073645;28;20635;-85
2021/06/24 04:17:11;;;;;;;4.60;4.17;;;16.30;99.90;;;;;;5069424;28;20623;-84
2021/06/24 04:19:38;;;;;;;4.33;4.03;;;16.30;99.90;;;;;;5082033;28;20734;-85
2021/06/24 04:22:05;;;;;;;4.13;3.83;;;16.30;99.90;;;;;;5062418;28;20636;-85
2021/06/24 04:24:32;;;;;;;4.40;4.10;;;16.30;99.90;;;;;;5067992;28;20633;-85
2021/06/24 04:27:00;;;;;;;3.60;3.40;;;16.40;99.90;;;;;;5065149;28;20632;-85
2021/06/24 04:29:28;;;;;;;3.80;3.50;;;16.40;99.90;;;;;;5067374;28;20647;-85
2021/06/24 04:31:55;;;;;;;3.70;3.50;;;16.40;99.90;;;;;;5068724;28;21455;-85
2021/06/24 04:34:23;;;;;;;3.80;3.50;;;16.40;99.90;;;;;;5067500;28;20980;-84
2021/06/24 04:36:50;;;;;;;3.30;3.00;;;16.50;99.90;;;;;;5069065;28;20702;-84
2021/06/24 04:39:18;;;;;;;3.67;3.30;;;16.40;99.90;;;;;;5073940;28;21218;-86
2021/06/24 04:41:45;;;;;;;3.87;3.57;;;16.50;99.90;;;;;;5071873;28;20652;-84
2021/06/24 04:44:12;;;;;;;3.60;3.30;;;16.50;99.90;;;;;;5066892;28;20624;-84
2021/06/24 04:46:39;;;;;;;2.97;2.77;;;16.60;99.90;;;;;;5073687;28;20620;-84
2021/06/24 04:49:05;;;;;;;3.87;3.57;;;16.60;99.90;;;;;;5068144;28;20652;-84
2021/06/24 04:51:34;;;;;;;4.27;3.87;;;16.60;99.90;;;;;;5070473;28;21011;-86
2021/06/24 04:54:01;;;;;;;6.93;3.90;;;16.60;99.90;;;;;;5069012;28;20682;-85
2021/06/24 04:56:28;;;;;;;4.07;3.77;;;16.70;99.90;;;;;;5070222;28;20725;-85
2021/06/24 04:58:55;;;;;;;3.70;3.40;;;16.80;99.90;;;;;;5070629;28;20636;-85
2021/06/24 05:01:22;;;;;;;3.63;3.40;;;16.80;99.90;;;;;;5073323;28;20707;-84
2021/06/24 05:03:49;;;;;;;2.80;2.60;;;16.90;99.90;;;;;;5075767;28;20620;-84
2021/06/24 05:06:16;;;;;;;3.53;3.33;;;16.80;99.90;;;;;;5075635;28;20636;-85
2021/06/24 05:08:45;;;;;;;3.40;3.17;;;16.80;99.90;;;;;;5061135;28;20629;-84
2021/06/24 05:11:12;;;;;;;6.20;3.87;;;16.90;99.90;;;;;;5072918;28;20651;-84
2021/06/24 05:13:38;;;;;;;4.30;3.90;;;17.00;99.90;;;;;;5073360;28;20609;-84
2021/06/24 05:16:06;;;;;;;4.20;3.30;;;17.20;99.90;;;;;;5066633;28;21238;-84
2021/06/24 05:18:33;;;;;;;3.20;2.87;;;17.30;99.90;;;;;;5066271;28;21033;-85
2021/06/24 05:21:00;;;;;;;3.57;3.30;;;17.40;99.90;;;;;;5064176;28;20682;-85
2021/06/24 05:23:27;;;;;;;4.33;3.20;;;17.50;99.90;;;;;;5055225;28;20629;-84
2021/06/24 05:25:56;;;;;;;3.90;2.80;;;17.80;99.90;;;;;;5068360;28;20636;-84
2021/06/24 05:28:23;;;;;;;6.13;2.70;;;18.00;99.90;;;;;;5059562;28;20634;-85
2021/06/24 05:30:50;;;;;;;3.00;2.70;;;18.10;99.90;;;;;;5063819;28;21253;-85
2021/06/24 05:33:17;;;;;;;3.53;3.23;;;18.20;99.90;;;;;;5063641;28;20614;-85
2021/06/24 05:35:46;;;;;;;4.00;2.90;;;18.00;99.90;;;;;;5055338;28;20618;-85
2021/06/24 05:38:13;;;;;;;3.00;2.80;;;18.10;99.90;;;;;;5060985;28;21011;-86
2021/06/24 05:40:40;;;;;;;3.70;3.40;;;18.20;99.90;;;;;;5061213;28;20672;-86
2021/06/24 05:43:09;;;;;;;4.37;3.17;;;18.20;99.90;;;;;;5056488;28;20981;-86
2021/06/24 05:45:35;;;;;;;3.50;3.17;;;18.30;99.90;;;;;;5054628;28;20628;-87
2021/06/24 05:48:02;;;;;;;2.97;2.77;;;18.40;99.90;;;;;;5056675;28;20629;-86
2021/06/24 05:50:29;;;;;;;3.70;3.40;;;18.40;99.90;;;;;;5054960;28;20687;-86
2021/06/24 05:52:56;;;;;;;3.83;3.43;;;18.50;99.90;;;;;;5055108;28;20676;-87
2021/06/24 05:55:47;;;;;;;3.70;3.40;;;18.40;99.90;;;;;;5055439;28;20636;-86
2021/06/24 05:58:15;;;;;;;4.20;3.80;;;18.30;99.90;;;;;;5059801;28;20631;-89
2021/06/24 06:00:44;;;;;;;3.77;3.47;;;18.30;99.90;;;;;;5057426;28;20665;-87
2021/06/24 06:03:12;;;;;;;3.13;2.93;;;18.20;99.90;;;;;;5063442;28;20648;-86
2021/06/24 06:05:48;;;;;;;3.63;3.33;;;18.30;99.90;;;;;;5072012;28;20632;-87
2021/06/24 06:08:17;;;;;;;3.17;2.90;;;18.40;99.90;;;;;;5054625;28;21137;-87
2021/06/24 06:10:46;;;;;;;3.20;2.97;;;18.40;99.90;;;;;;5061444;28;20988;-88
2021/06/24 06:13:18;;;;;;;4.17;3.80;;;18.60;99.90;;;;;;5067303;28;20649;-87
2021/06/24 06:15:51;;;;;;;3.80;3.17;;;18.60;99.90;;;;;;5059706;28;20616;-89
2021/06/24 06:18:23;;;;;;;4.00;3.70;;;18.90;99.90;;;;;;5066068;28;20636;-86
2021/06/24 06:20:58;;;;;;;4.57;3.50;;;18.80;99.90;;;;;;5060828;28;21266;-86
2021/06/24 06:23:28;;;;;;;3.77;3.43;;;18.70;99.90;;;;;;5068672;28;20667;-85
2021/06/24 06:26:00;;;;;;;3.77;3.33;;;18.80;99.90;;;;;;5069109;28;20639;-85
2021/06/24 06:28:31;;;;;;;4.20;3.60;;;19.00;99.90;;;;;;5064904;28;20625;-86
2021/06/24 06:31:02;;;;;;;5.83;3.67;;;19.20;99.90;;;;;;5071120;28;20652;-86
2021/06/24 06:33:32;;;;;;;5.40;3.17;;;19.30;99.90;;;;;;5043032;28;20634;-86
2021/06/24 06:36:02;;;;;;;5.13;3.17;;;19.30;99.90;;;;;;5043284;28;20645;-86
2021/06/24 06:38:33;;;;;;;2.87;2.63;;;19.30;99.90;;;;;;5065919;28;20998;-84
2021/06/24 06:41:01;;;;;;;4.13;3.00;;;19.40;99.90;;;;;;5062952;28;20693;-86
2021/06/24 06:43:31;;;;;;;10.57;4.73;;;19.40;99.90;;;;;;5039994;28;20629;-87
2021/06/24 06:45:58;;;;;;;3.33;3.10;;;19.40;99.90;;;;;;5046349;28;20630;-88
2021/06/24 06:48:35;;;;;;;3.60;3.30;;;19.40;99.90;;;;;;5059865;28;20756;-89
2021/06/24 06:51:05;;;;;;;3.47;3.17;;;19.30;99.90;;;;;;5067582;28;20721;-88
2021/06/24 06:53:34;;;;;;;4.37;3.97;;;19.20;99.90;;;;;;5071659;28;20625;-88
2021/06/24 06:56:03;;;;;;;3.50;2.80;;;19.20;99.90;;;;;;5064877;28;20686;-89
2021/06/24 06:58:32;;;;;;;3.80;3.40;;;19.20;99.90;;;;;;5067361;28;20655;-89
2021/06/24 07:01:01;;;;;;;3.37;3.07;;;19.10;99.90;;;;;;5047951;28;20732;-88
2021/06/24 07:03:31;;;;;;;3.63;3.33;;;19.20;99.90;;;;;;5069238;28;20648;-89
2021/06/24 07:05:59;;;;;;;10.17;5.90;;;19.20;99.90;;;;;;5068758;28;20731;-90
2021/06/24 07:08:30;;;;;;;4.33;3.93;;;19.20;99.90;;;;;;5065692;28;20714;-89
2021/06/24 07:10:59;;;;;;;4.07;3.77;;;19.40;99.90;;;;;;5057487;28;21282;-90
2021/06/24 07:13:26;;;;;;;4.50;4.10;;;19.40;99.90;;;;;;5077137;28;20982;-90
2021/06/24 07:15:57;;;;;;;3.60;3.30;;;19.50;99.90;;;;;;5063049;28;20602;-89
2021/06/24 07:18:28;;;;;;;4.57;4.17;;;19.70;99.90;;;;;;5066642;28;21208;-91
2021/06/24 07:20:55;;;;;;;4.73;3.97;;;19.70;99.90;;;;;;5065595;28;21019;-88
2021/06/24 07:23:23;;;;;;;3.90;3.60;;;19.90;99.90;;;;;;5066126;28;20628;-87
2021/06/24 07:25:56;;;;;;;3.30;3.00;;;19.70;99.90;;;;;;5062599;28;20635;-90
2021/06/24 07:28:26;;;;;;;5.03;3.50;;;19.90;99.90;;;;;;5070152;28;21059;-89
2021/06/24 07:30:57;;;;;;;3.83;3.53;;;19.90;99.90;;;;;;5068870;28;21272;-90
2021/06/24 07:33:26;;;;;;;3.40;3.20;;;20.10;99.90;;;;;;5069346;28;20664;-90
2021/06/24 07:35:54;;;;;;;3.63;3.30;;;20.00;99.90;;;;;;5063620;28;20636;-89
2021/06/24 07:38:22;;;;;;;4.20;3.90;;;20.20;99.90;;;;;;5069167;28;20638;-89
2021/06/24 07:40:50;;;;;;;2.83;2.63;;;20.00;99.90;;;;;;5068979;28;20668;-89
2021/06/24 07:43:19;;;;;;;4.70;4.23;;;20.10;99.90;;;;;;5052836;28;20642;-88
2021/06/24 07:45:49;;;;;;;3.63;3.40;;;20.00;99.90;;;;;;5066099;28;20643;-89
2021/06/24 07:48:19;;;;;;;2.83;2.50;;;20.10;99.90;;;;;;5044759;28;20723;-90
2021/06/24 07:50:47;;;;;;;3.63;3.33;;;20.00;99.90;;;;;;5063684;28;20667;-89
2021/06/24 07:53:26;;;;;;;5.13;3.10;;;20.30;99.90;;;;;;5058934;28;20634;-90
2021/06/24 07:55:56;;;;;;;3.17;2.87;;;20.30;99.90;;;;;;5058728;28;20629;-90
2021/06/24 07:58:30;;;;;;;3.47;3.17;;;20.60;99.90;;;;;;5046411;28;20696;-90
2021/06/24 08:01:00;;;;;;;4.80;3.13;;;21.00;99.90;;;;;;5063846;28;20678;-89
2021/06/24 08:03:46;;;;;;;5.40;2.70;;;21.00;99.90;;;;;;5061362;28;21258;-89
2021/06/24 08:06:17;;;;;;;2.90;2.67;;;21.00;99.90;;;;;;5060456;28;20629;-90
2021/06/24 08:08:46;;;;;;;3.50;3.23;;;21.10;99.90;;;;;;5064121;28;20641;-89
2021/06/24 08:11:15;;;;;;;3.57;3.33;;;21.00;99.90;;;;;;5058676;28;20667;-89
2021/06/24 08:13:46;;;;;;;2.70;2.50;;;20.80;99.90;;;;;;5065729;28;20635;-90
2021/06/24 08:16:17;;;;;;;2.57;2.37;;;21.00;99.90;;;;;;5055832;28;20713;-90
2021/06/24 08:18:47;;;;;;;3.07;2.77;;;20.90;99.90;;;;;;5072644;28;20623;-90
2021/06/24 08:21:17;;;;;;;2.60;2.40;;;21.20;99.90;;;;;;5043130;28;20747;-89
2021/06/24 08:23:45;;;;;;;3.33;3.03;;;21.10;99.90;;;;;;5060734;28;20613;-88
2021/06/24 08:26:11;;;;;;;3.17;2.77;;;20.90;99.90;;;;;;5058258;28;20745;-89
2021/06/24 08:28:38;;;;;;;2.40;2.13;;;20.80;99.90;;;;;;5065014;28;20616;-89
2021/06/24 08:31:06;;;;;;;3.30;2.50;;;20.80;99.90;;;;;;5068634;28;20656;-89
2021/06/24 08:33:33;;;;;;;2.60;2.40;;;20.80;99.90;;;;;;5073285;28;20629;-89
2021/06/24 08:36:01;;;;;;;3.40;2.90;;;21.30;99.90;;;;;;5065022;28;21182;-89
2021/06/24 08:38:28;;;;;;;2.77;2.57;;;21.30;99.90;;;;;;5065718;28;20626;-89
2021/06/24 08:40:56;;;;;;;3.10;2.90;;;21.30;99.90;;;;;;5062372;28;21452;-89
2021/06/24 08:43:23;;;;;;;5.03;2.57;;;21.40;99.90;;;;;;5062369;28;20656;-89
2021/06/24 08:45:50;;;;;;;3.77;3.47;;;21.40;99.90;;;;;;5055848;28;21547;-88
2021/06/24 08:48:20;;;;;;;3.20;2.90;;;21.10;99.90;;;;;;5070315;28;20673;-89
2021/06/24 08:50:49;;;;;;;3.87;3.57;;;21.00;99.90;;;;;;5064026;28;20655;-89
2021/06/24 08:53:19;;;;;;;3.63;3.33;;;20.80;99.90;;;;;;5059357;28;20648;-89
2021/06/24 08:55:50;;;;;;;3.80;3.47;;;20.80;99.90;;;;;;5058600;28;20623;-89
2021/06/24 08:58:17;;;;;;;3.30;3.10;;;20.70;99.90;;;;;;5062531;28;20648;-89
2021/06/24 09:00:44;;;;;;;4.70;3.50;;;20.90;99.90;;;;;;5064533;28;20621;-89
2021/06/24 09:03:19;;;;;;;3.37;3.10;;;21.10;99.90;;;;;;5060549;28;20667;-89
2021/06/24 09:05:54;;;;;;;2.53;2.33;;;21.20;99.90;;;;;;5063717;28;20654;-89
2021/06/24 09:08:27;;;;;;;3.53;3.07;;;21.00;99.90;;;;;;5060532;28;21301;-91
2021/06/24 09:11:28;;;;;;;3.40;3.20;;;21.10;99.90;;;;;;5066959;28;20613;-89
2021/06/24 09:14:00;;;;;;;3.97;3.50;;;21.20;99.90;;;;;;4964860;28;20647;-89
2021/06/24 09:16:31;;;;;;;5.23;3.90;;;21.30;99.90;;;;;;4960068;28;20649;-88
2021/06/24 09:19:15;;;;;;;3.53;3.23;;;21.20;99.90;;;;;;5012382;28;20632;-89
2021/06/24 09:21:44;;;;;;;4.07;3.77;;;21.30;99.90;;;;;;5056242;28;20768;-88
2021/06/24 09:24:24;;;;;;;6.03;3.60;;;21.60;99.90;;;;;;5060278;28;20618;-89
2021/06/24 09:26:51;;;;;;;4.13;3.83;;;22.40;99.90;;;;;;5066178;28;20727;-88
2021/06/24 09:29:19;;;;;;;3.63;3.30;;;22.50;99.90;;;;;;5063318;28;20621;-89
2021/06/24 09:31:50;;;;;;;3.53;3.20;;;22.50;99.90;;;;;;5063557;28;20656;-88
2021/06/24 09:34:18;;;;;;;3.83;3.40;;;22.80;99.90;;;;;;5072699;28;20649;-88
2021/06/24 09:36:47;;;;;;;4.60;4.20;;;22.70;99.90;;;;;;5052941;28;21416;-88
2021/06/24 09:39:28;;;;;;;3.67;3.37;;;22.70;99.90;;;;;;5066117;28;20624;-88
2021/06/24 09:42:02;;;;;;;3.20;2.90;;;22.70;99.90;;;;;;5059787;28;20680;-88
2021/06/24 09:44:30;;;;;;;3.40;3.20;;;22.40;99.90;;;;;;5068178;28;20653;-88
2021/06/24 09:46:58;;;;;;;3.17;2.97;;;22.40;99.90;;;;;;5062501;28;20660;-88
2021/06/24 09:49:27;;;;;;;3.10;2.80;;;22.70;99.90;;;;;;5063748;28;20621;-88
2021/06/24 09:51:56;;;;;;;3.53;3.23;;;23.30;99.90;;;;;;5065410;28;20650;-88
2021/06/24 09:54:36;;;;;;;3.30;2.87;;;23.50;99.90;;;;;;5063306;28;20625;-88
2021/06/24 09:57:04;;;;;;;4.00;3.07;;;23.10;99.90;;;;;;5063710;28;20617;-88
2021/06/24 09:59:34;;;;;;;2.80;2.60;;;23.50;99.90;;;;;;5069709;28;20630;-88
2021/06/24 10:02:07;;;;;;;3.73;2.67;;;23.10;99.90;;;;;;5057290;28;20677;-89
2021/06/24 10:04:35;;;;;;;3.63;2.90;;;23.50;99.90;;;;;;5068666;28;21058;-89
2021/06/24 10:07:04;;;;;;;2.60;2.23;;;23.60;99.90;;;;;;5064269;28;21163;-89
2021/06/24 10:09:33;;;;;;;2.77;2.53;;;23.90;99.90;;;;;;5057272;28;20646;-88
2021/06/24 10:12:00;;;;;;;2.60;2.10;;;23.80;99.90;;;;;;5063598;28;21024;-88
2021/06/24 10:14:27;;;;;;;3.27;2.17;;;23.90;99.90;;;;;;5061117;28;21180;-87
2021/06/24 10:16:56;;;;;;;3.03;2.07;;;24.00;99.90;;;;;;5060187;28;20631;-88
2021/06/24 10:19:26;;;;;;;2.60;2.10;;;23.80;99.90;;;;;;5066968;28;20655;-88
2021/06/24 10:21:56;;;;;;;2.40;2.20;;;24.00;99.90;;;;;;5059191;28;20692;-88
2021/06/24 10:24:29;;;;;;;4.33;3.93;;;23.80;99.90;;;;;;5059226;28;20632;-87
2021/06/24 10:27:00;;;;;;;2.50;2.30;;;23.30;99.90;;;;;;5067115;28;20623;-88
2021/06/24 10:29:41;;;;;;;2.33;2.10;;;23.30;99.90;;;;;;5061386;28;20625;-88
2021/06/24 10:32:26;;;;;;;2.30;2.20;;;23.30;99.90;;;;;;5062237;28;20646;-88
2021/06/24 10:34:54;;;;;;;3.40;2.47;;;23.40;99.90;;;;;;5050695;28;20629;-88
2021/06/24 10:37:23;;;;;;;2.30;2.20;;;23.20;99.90;;;;;;5059920;28;21066;-88
2021/06/24 10:39:52;;;;;;;2.60;2.17;;;23.60;99.90;;;;;;5067132;28;20633;-88
2021/06/24 10:42:20;;;;;;;2.07;1.97;;;23.60;99.90;;;;;;5065673;28;20676;-88
2021/06/24 10:44:54;;;;;;;1.70;1.60;;;23.80;99.90;;;;;;5065417;28;21002;-88
2021/06/24 10:47:43;;;;;;;2.40;2.20;;;23.90;99.90;;;;;;5061115;28;20629;-88
2021/06/24 10:50:36;;;;;;;2.10;1.93;;;24.00;99.90;;;;;;5053686;28;20634;-87
2021/06/24 10:53:45;;;;;;;3.47;2.33;;;24.10;99.90;;;;;;5067965;28;20634;-88
2021/06/24 10:56:32;;;;;;;2.40;2.20;;;23.70;99.90;;;;;;5037909;28;20740;-88
2021/06/24 10:59:02;;;;;;;4.40;2.00;;;23.90;99.90;;;;;;5065203;28;20632;-88
2021/06/24 11:01:43;;;;;;;2.47;2.03;;;23.70;99.90;;;;;;5058542;28;20652;-87
2021/06/24 11:04:27;;;;;;;2.30;1.97;;;23.60;99.90;;;;;;5062972;28;20665;-88
2021/06/24 11:06:55;;;;;;;3.30;2.33;;;23.50;99.90;;;;;;5062843;28;20619;-88
2021/06/24 11:09:22;;;;;;;2.80;2.60;;;24.10;99.90;;;;;;5058277;28;20632;-88
2021/06/24 11:11:49;;;;;;;2.50;2.30;;;24.40;99.90;;;;;;5065873;28;21219;-87
2021/06/24 11:14:58;;;;;;;4.10;2.40;;;24.30;99.90;;;;;;5069204;28;20961;-88
2021/06/24 11:17:50;;;;;;;3.50;1.80;;;24.40;99.90;;;;;;5058381;28;21000;-88
2021/06/24 11:20:20;;;;;;;1.63;1.53;;;24.80;99.90;;;;;;5052730;28;20630;-87
2021/06/24 11:22:52;;;;;;;1.60;1.50;;;24.30;99.90;;;;;;5053882;28;21261;-88
2021/06/24 11:25:19;;;;;;;2.00;1.90;;;24.10;99.90;;;;;;5057723;28;20629;-88
2021/06/24 11:27:46;;;;;;;2.13;1.93;;;24.20;99.90;;;;;;5059353;28;20628;-87
2021/06/24 11:30:15;;;;;;;5.60;1.47;;;24.20;99.90;;;;;;5056502;28;20629;-88
2021/06/24 11:32:51;;;;;;;1.77;1.60;;;24.00;99.90;;;;;;5061408;28;20671;-88
2021/06/24 11:35:49;;;;;;;3.00;1.67;;;24.40;99.90;;;;;;5067573;28;20670;-88
2021/06/24 11:38:16;;;;;;;1.70;1.60;;;24.80;99.90;;;;;;5062294;28;20669;-87
2021/06/24 11:40:45;;;;;;;2.90;1.80;;;25.50;99.90;;;;;;5078734;28;20649;-88
2021/06/24 11:43:12;;;;;;;2.13;1.93;;;25.60;99.90;;;;;;5067424;28;20660;-88
2021/06/24 11:45:43;;;;;;;1.70;1.60;;;25.80;99.90;;;;;;5060475;28;20620;-88
2021/06/24 11:48:14;;;;;;;1.50;1.40;;;25.70;99.90;;;;;;5059208;28;20614;-88
2021/06/24 12:04:27;;;;;;;2.50;1.70;;;26.60;96.80;;;;;;5053823;28;20629;-88
2021/06/24 12:06:57;;;;;;;1.57;1.47;;;26.60;96.40;;;;;;5066895;28;20670;-89
2021/06/24 12:09:26;;;;;;;1.93;1.73;;;26.10;97.90;;;;;;5071327;28;20628;-89
2021/06/24 12:11:57;;;;;;;2.40;1.33;;;26.50;97.10;;;;;;5043777;28;20970;-89
2021/06/24 12:14:26;;;;;;;1.50;1.40;;;26.40;96.30;;;;;;5067189;28;20620;-90
2021/06/24 12:17:24;;;;;;;1.47;1.37;;;26.80;96.20;;;;;;5059872;28;20648;-89
2021/06/24 12:20:03;;;;;;;1.60;1.50;;;26.30;96.50;;;;;;5060358;28;20644;-90
2021/06/24 12:22:47;;;;;;;1.67;1.57;;;26.10;96.70;;;;;;5057994;28;20768;-90
2021/06/24 12:25:16;;;;;;;2.30;1.73;;;26.00;96.40;;;;;;5062069;28;20991;-90
2021/06/24 12:27:45;;;;;;;2.40;1.20;;;25.50;97.70;;;;;;5057823;28;20633;-90
2021/06/24 12:30:15;;;;;;;1.20;1.10;;;25.40;98.60;;;;;;5054795;28;20602;-89
2021/06/24 12:32:55;;;;;;;2.10;1.60;;;25.30;99.20;;;;;;5064337;28;21174;-90
2021/06/24 12:35:28;;;;;;;1.70;1.60;;;24.90;99.90;;;;;;5061137;28;21183;-89
2021/06/24 12:37:57;;;;;;;2.80;1.53;;;25.00;99.90;;;;;;5050442;28;20649;-89
2021/06/24 12:40:28;;;;;;;2.00;1.57;;;25.20;99.90;;;;;;5051525;28;21199;-90
2021/06/24 12:42:58;;;;;;;1.80;1.70;;;24.90;99.90;;;;;;5065719;28;20628;-90
2021/06/24 12:45:26;;;;;;;1.67;1.57;;;24.80;99.90;;;;;;5071723;28;20624;-89
2021/06/24 12:47:56;;;;;;;1.60;1.50;;;24.90;99.90;;;;;;5072490;28;20631;-88
2021/06/24 12:50:28;;;;;;;1.50;1.40;;;24.80;99.90;;;;;;5064258;28;20662;-89
2021/06/24 12:52:58;;;;;;;1.63;1.47;;;25.00;99.90;;;;;;5062886;28;20675;-89
2021/06/24 12:55:54;;;;;;;1.77;1.67;;;25.20;99.90;;;;;;5066979;28;20621;-89
2021/06/24 12:58:33;;;;;;;1.63;1.53;;;25.50;99.80;;;;;;4985495;28;20645;-89
2021/06/24 13:01:08;;;;;;;1.37;1.27;;;25.60;99.60;;;;;;5036226;28;20664;-89
2021/06/24 13:03:45;;;;;;;1.50;1.40;;;26.20;99.50;;;;;;5037285;28;20650;-91
2021/06/24 13:06:18;;;;;;;1.43;1.33;;;26.60;97.50;;;;;;5049354;28;20632;-90
2021/06/24 13:09:00;;;;;;;1.30;1.20;;;26.50;97.10;;;;;;5038994;28;20677;-89
2021/06/24 13:11:28;;;;;;;1.27;1.10;;;26.90;95.40;;;;;;5034951;28;20634;-91
2021/06/24 13:13:58;;;;;;;0.93;0.80;;;27.80;94.20;;;;;;5047777;28;20630;-90
2021/06/24 13:16:27;;;;;;;1.17;1.07;;;28.60;89.10;;;;;;5039304;28;20634;-90